createdAt,value
2022-10-23T00:01:12.194Z,100369.31
2022-10-23T00:03:39.723Z,100368.66
2022-10-23T00:06:08.052Z,100371.34
2022-10-23T00:08:35.418Z,100371.22
2022-10-23T00:11:08.450Z,100371.75
2022-10-23T00:13:36.072Z,100366.66
2022-10-23T00:16:04.013Z,100370.38
2022-10-23T00:18:32.092Z,100368.88
2022-10-23T00:20:59.931Z,100371.56
2022-10-23T00:23:27.661Z,100368.03
2022-10-23T00:25:55.757Z,100370.94
2022-10-23T00:28:24.577Z,100373.75
2022-10-23T00:30:52.257Z,100376.44
2022-10-23T00:33:19.591Z,100369.41
2022-10-23T00:35:47.420Z,100371.75
2022-10-23T00:38:14.747Z,100365.88
2022-10-23T00:40:42.516Z,100369.75
2022-10-23T00:43:17.799Z,100365.88
2022-10-23T00:45:47.551Z,100366.38
2022-10-23T00:48:15.740Z,100366.69
2022-10-23T00:50:44.668Z,100369.03
2022-10-23T00:53:14.408Z,100371.03
2022-10-23T00:55:43.908Z,100365.50
2022-10-23T00:58:11.305Z,100373.59
2022-10-23T01:00:45.472Z,100372.91
2022-10-23T01:03:15.800Z,100372.41
2022-10-23T01:05:49.105Z,100374.94
2022-10-23T01:08:26.944Z,100379.13
2022-10-23T01:11:00.655Z,100377.97
2022-10-23T01:13:37.833Z,100378.13
2022-10-23T01:16:11.892Z,100374.09
2022-10-23T01:18:44.805Z,100379.81
2022-10-23T01:21:21.690Z,100386.19
2022-10-23T01:24:04.194Z,100384.69
2022-10-23T01:26:50.294Z,100380.97
2022-10-23T01:29:25.359Z,100386.22
2022-10-23T01:31:58.351Z,100386.22
2022-10-23T01:34:31.682Z,100383.34
2022-10-23T01:37:01.389Z,100390.06
2022-10-23T01:39:34.183Z,100392.59
2022-10-23T01:42:06.884Z,100384.84
2022-10-23T01:44:42.242Z,100395.94
2022-10-23T01:47:13.240Z,100392.03
2022-10-23T01:49:42.638Z,100392.03
2022-10-23T01:52:14.562Z,100393.19
2022-10-23T01:54:44.973Z,100391.84
2022-10-23T01:57:16.971Z,100393.53
2022-10-23T01:59:49.579Z,100391.69
2022-10-23T02:02:19.115Z,100402.31
2022-10-23T02:04:51.087Z,100403.66
2022-10-23T02:07:18.883Z,100410.56
2022-10-23T02:09:46.165Z,100402.66
2022-10-23T02:12:21.853Z,100403.31
2022-10-23T02:14:54.818Z,100408.00
2022-10-23T02:17:33.810Z,100398.41
2022-10-23T02:20:12.922Z,100398.72
2022-10-23T02:22:49.211Z,100402.09
2022-10-23T02:25:23.281Z,100407.31
2022-10-23T02:27:54.803Z,100401.53
2022-10-23T02:30:23.693Z,100400.16
2022-10-23T02:32:54.811Z,100399.53
2022-10-23T02:35:24.455Z,100408.09
2022-10-23T02:37:53.838Z,100406.50
2022-10-23T02:40:22.807Z,100399.22
2022-10-23T02:42:57.686Z,100394.50
2022-10-23T02:45:36.413Z,100397.50
2022-10-23T02:48:12.431Z,100393.34
2022-10-23T02:50:50.089Z,100402.06
2022-10-23T02:53:21.806Z,100397.25
2022-10-23T02:56:01.614Z,100408.66
2022-10-23T02:58:37.444Z,100406.31
2022-10-23T03:01:10.907Z,100405.84
2022-10-23T03:03:41.935Z,100405.75
2022-10-23T03:06:10.168Z,100410.34
2022-10-23T03:08:45.126Z,100415.41
2022-10-23T03:11:12.585Z,100412.75
2022-10-23T03:13:39.902Z,100414.88
2022-10-23T03:16:09.076Z,100405.78
2022-10-23T03:18:36.464Z,100411.69
2022-10-23T03:21:04.343Z,100416.38
2022-10-23T03:23:31.632Z,100402.78
2022-10-23T03:25:59.081Z,100406.69
2022-10-23T03:28:26.304Z,100404.75
2022-10-23T03:30:53.998Z,100414.63
2022-10-23T03:33:22.651Z,100411.81
2022-10-23T03:35:50.306Z,100416.59
2022-10-23T03:38:17.767Z,100418.31
2022-10-23T03:40:45.333Z,100418.75
2022-10-23T03:43:12.707Z,100403.09
2022-10-23T03:45:40.197Z,100402.72
2022-10-23T03:48:08.097Z,100396.16
2022-10-23T03:50:37.218Z,100406.28
2022-10-23T03:53:04.406Z,100399.31
2022-10-23T03:55:32.101Z,100402.84
2022-10-23T03:57:59.470Z,100404.22
2022-10-23T04:00:27.128Z,100400.41
2022-10-23T04:02:54.488Z,100396.03
2022-10-23T04:05:22.428Z,100396.72
2022-10-23T04:07:51.210Z,100394.41
2022-10-23T04:10:19.368Z,100396.94
2022-10-23T04:12:46.694Z,100399.03
2022-10-23T04:15:14.735Z,100388.72
2022-10-23T04:17:42.290Z,100393.19
2022-10-23T04:20:10.452Z,100389.97
2022-10-23T04:22:37.741Z,100387.44
2022-10-23T04:25:07.693Z,100384.13
2022-10-23T04:27:35.044Z,100396.22
2022-10-23T04:30:02.708Z,100392.53
2022-10-23T04:32:30.241Z,100398.75
2022-10-23T04:34:57.874Z,100397.94
2022-10-23T04:37:25.478Z,100403.66
2022-10-23T04:39:53.123Z,100399.63
2022-10-23T04:42:25.005Z,100410.88
2022-10-23T04:44:52.794Z,100410.72
2022-10-23T04:47:20.311Z,100408.00
2022-10-23T04:49:47.982Z,100410.22
2022-10-23T04:52:15.486Z,100407.69
2022-10-23T04:54:42.774Z,100413.25
2022-10-23T04:57:10.479Z,100414.09
2022-10-23T04:59:39.155Z,100412.91
2022-10-23T05:02:06.969Z,100413.25
2022-10-23T05:04:34.268Z,100418.47
2022-10-23T05:07:02.023Z,100419.81
2022-10-23T05:09:29.357Z,100428.72
2022-10-23T05:11:56.652Z,100428.53
2022-10-23T05:14:24.339Z,100426.03
2022-10-23T05:16:59.234Z,100419.31
2022-10-23T05:19:32.967Z,100431.09
2022-10-23T05:22:01.254Z,100427.88
2022-10-23T05:24:29.118Z,100429.72
2022-10-23T05:26:56.943Z,100431.72
2022-10-23T05:29:24.649Z,100423.81
2022-10-23T05:31:57.552Z,100428.03
2022-10-23T05:34:28.286Z,100426.84
2022-10-23T05:36:55.975Z,100421.09
2022-10-23T05:39:24.103Z,100425.16
2022-10-23T05:41:51.676Z,100430.06
2022-10-23T05:44:19.312Z,100428.34
2022-10-23T05:46:47.147Z,100414.06
2022-10-23T05:49:16.027Z,100407.81
2022-10-23T05:51:43.478Z,100406.00
2022-10-23T05:54:11.104Z,100405.31
2022-10-23T05:56:39.871Z,100414.75
2022-10-23T05:59:08.008Z,100415.56
2022-10-23T06:01:36.624Z,100414.56
2022-10-23T06:04:05.400Z,100429.53
2022-10-23T06:06:34.167Z,100427.19
2022-10-23T06:09:01.952Z,100430.22
2022-10-23T06:11:29.112Z,100432.66
2022-10-23T06:16:24.979Z,100432.25
2022-10-23T06:18:53.059Z,100438.81
2022-10-23T06:21:20.596Z,100427.69
2022-10-23T06:23:49.526Z,100436.94
2022-10-23T06:26:18.902Z,100435.25
2022-10-23T06:28:46.750Z,100440.22
2022-10-23T06:31:15.669Z,100445.50
2022-10-23T06:33:43.358Z,100446.63
2022-10-23T06:36:10.866Z,100444.22
2022-10-23T06:38:38.771Z,100444.28
2022-10-23T06:41:11.988Z,100449.59
2022-10-23T06:43:39.786Z,100455.59
2022-10-23T06:46:07.238Z,100455.53
2022-10-23T06:48:35.101Z,100449.28
2022-10-23T06:51:06.189Z,100455.16
2022-10-23T06:53:33.715Z,100455.09
2022-10-23T06:56:02.115Z,100456.69
2022-10-23T06:58:31.541Z,100456.56
2022-10-23T07:01:01.092Z,100457.28
2022-10-23T07:03:28.667Z,100456.38
2022-10-23T07:05:56.242Z,100455.09
2022-10-23T07:08:23.471Z,100447.91
2022-10-23T07:10:51.075Z,100447.91
2022-10-23T07:13:18.558Z,100448.63
2022-10-23T07:15:48.127Z,100442.00
2022-10-23T07:18:15.528Z,100442.44
2022-10-23T07:20:43.759Z,100450.66
2022-10-23T07:23:12.007Z,100447.72
2022-10-23T07:25:39.961Z,100456.69
2022-10-23T07:28:07.279Z,100452.31
2022-10-23T07:30:35.061Z,100460.63
2022-10-23T07:33:04.019Z,100455.22
2022-10-23T07:35:34.263Z,100451.16
2022-10-23T07:38:04.479Z,100448.56
2022-10-23T07:43:17.585Z,100448.09
2022-10-23T07:45:47.833Z,100442.41
2022-10-23T07:48:16.839Z,100445.09
2022-10-23T07:50:44.487Z,100446.06
2022-10-23T07:53:16.845Z,100452.06
2022-10-23T07:58:30.967Z,100457.34
2022-10-23T08:01:01.517Z,100465.31
2022-10-23T08:03:33.069Z,100467.41
2022-10-23T08:06:00.805Z,100469.00
2022-10-23T08:08:28.169Z,100472.03
2022-10-23T08:10:55.939Z,100474.91
2022-10-23T08:13:23.703Z,100472.44
2022-10-23T08:15:52.725Z,100476.22
2022-10-23T08:18:20.641Z,100469.03
2022-10-23T08:20:50.134Z,100463.59
2022-10-23T08:23:18.812Z,100475.41
2022-10-23T08:25:47.617Z,100468.72
2022-10-23T08:28:15.758Z,100467.47
2022-10-23T08:30:44.069Z,100464.38
2022-10-23T08:33:35.710Z,100464.00
2022-10-23T08:36:08.428Z,100456.69
2022-10-23T08:38:45.296Z,100461.69
2022-10-23T08:41:25.699Z,100464.84
2022-10-23T08:43:57.718Z,100472.78
2022-10-23T08:46:30.051Z,100476.41
2022-10-23T08:49:07.707Z,100475.91
2022-10-23T08:51:41.787Z,100470.06
2022-10-23T08:54:15.788Z,100472.81
2022-10-23T08:56:48.732Z,100477.00
2022-10-23T08:59:20.438Z,100481.00
2022-10-23T09:01:49.659Z,100482.88
2022-10-23T09:04:17.122Z,100482.22
2022-10-23T09:06:54.663Z,100480.59
2022-10-23T09:09:42.789Z,100488.16
2022-10-23T09:12:13.636Z,100489.16
2022-10-23T09:15:00.702Z,100479.28
2022-10-23T09:17:30.765Z,100484.06
2022-10-23T09:20:05.470Z,100479.97
2022-10-23T09:22:34.524Z,100484.56
2022-10-23T09:25:01.814Z,100481.03
2022-10-23T09:27:29.651Z,100478.53
2022-10-23T09:29:57.104Z,100480.22
2022-10-23T09:32:36.091Z,100484.75
2022-10-23T09:35:04.964Z,100484.34
2022-10-23T09:37:35.175Z,100479.56
2022-10-23T09:40:12.439Z,100480.59
2022-10-23T09:42:51.502Z,100485.22
2022-10-23T09:45:25.115Z,100482.66
2022-10-23T09:48:04.236Z,100475.78
2022-10-23T09:50:31.811Z,100467.03
2022-10-23T09:53:02.074Z,100467.44
2022-10-23T09:55:29.955Z,100469.75
2022-10-23T09:57:57.836Z,100464.53
2022-10-23T10:00:27.093Z,100471.41
2022-10-23T10:02:57.946Z,100473.91
2022-10-23T10:05:26.889Z,100469.97
2022-10-23T10:07:58.510Z,100470.78
2022-10-23T10:10:30.670Z,100471.63
2022-10-23T10:13:02.216Z,100467.41
2022-10-23T10:15:34.990Z,100460.31
2022-10-23T10:18:14.676Z,100464.69
2022-10-23T10:20:55.072Z,100457.59
2022-10-23T10:23:31.508Z,100458.84
2022-10-23T10:26:13.918Z,100450.25
2022-10-23T10:28:54.289Z,100446.94
2022-10-23T10:31:33.180Z,100451.16
2022-10-23T10:34:11.220Z,100445.69
2022-10-23T10:36:49.714Z,100446.06
2022-10-23T10:39:27.813Z,100442.97
2022-10-23T10:42:16.984Z,100446.06
2022-10-23T10:45:00.232Z,100439.59
2022-10-23T10:47:38.131Z,100443.97
2022-10-23T10:50:08.865Z,100433.06
2022-10-23T10:52:48.314Z,100426.63
2022-10-23T10:55:23.998Z,100423.91
2022-10-23T10:58:23.760Z,100420.00
2022-10-23T11:00:55.275Z,100420.41
2022-10-23T11:03:37.449Z,100412.13
2022-10-23T11:06:15.140Z,100402.31
2022-10-23T11:08:57.488Z,100407.47
2022-10-23T11:11:32.320Z,100398.09
2022-10-23T11:14:02.263Z,100409.59
2022-10-23T11:16:33.770Z,100405.69
2022-10-23T11:19:11.304Z,100409.06
2022-10-23T11:21:46.668Z,100408.88
2022-10-23T11:24:55.790Z,100408.00
2022-10-23T11:27:48.905Z,100409.63
2022-10-23T11:30:24.261Z,100408.88
2022-10-23T11:33:28.809Z,100402.47
2022-10-23T11:36:05.889Z,100392.25
2022-10-23T11:38:35.770Z,100381.81
2022-10-23T11:41:06.439Z,100382.16
2022-10-23T11:43:49.263Z,100391.50
2022-10-23T11:58:22.621Z,100360.25
2022-10-23T12:00:58.151Z,100360.63
2022-10-23T12:03:32.498Z,100350.34
2022-10-23T12:06:04.807Z,100352.69
2022-10-23T12:08:35.511Z,100345.19
2022-10-23T12:11:03.002Z,100340.34
2022-10-23T12:13:44.618Z,100333.66
2022-10-23T12:16:12.712Z,100323.31
2022-10-23T12:18:53.487Z,100321.25
2022-10-23T12:21:22.602Z,100319.56
2022-10-23T12:24:13.129Z,100307.69
2022-10-23T12:27:04.498Z,100310.47
2022-10-23T12:29:43.760Z,100307.03
2022-10-23T12:32:33.417Z,100309.72
2022-10-23T12:35:29.763Z,100302.81
2022-10-23T12:38:12.787Z,100299.97
2022-10-23T12:40:40.792Z,100302.91
2022-10-23T12:43:23.283Z,100293.44
2022-10-23T12:45:51.590Z,100291.22
2022-10-23T12:48:20.531Z,100293.03
2022-10-23T12:50:54.604Z,100294.25
2022-10-23T12:53:23.768Z,100290.34
2022-10-23T12:55:56.583Z,100288.47
2022-10-23T12:58:26.327Z,100282.75
2022-10-23T13:00:56.381Z,100283.81
2022-10-23T13:03:26.084Z,100276.97
2022-10-23T13:05:56.870Z,100282.72
2022-10-23T13:08:31.644Z,100271.78
2022-10-23T13:11:00.029Z,100273.03
2022-10-23T13:13:28.013Z,100275.56
2022-10-23T13:15:55.778Z,100258.91
2022-10-23T13:18:23.141Z,100261.50
2022-10-23T13:23:31.443Z,100254.00
2022-10-23T13:26:00.673Z,100255.06
2022-10-23T13:28:29.819Z,100250.31
2022-10-23T13:31:01.817Z,100256.25
2022-10-23T13:33:33.886Z,100260.28
2022-10-23T13:36:06.592Z,100256.66
2022-10-23T13:38:35.853Z,100254.41
2022-10-23T13:41:05.660Z,100253.88
2022-10-23T13:43:34.560Z,100251.94
2022-10-23T13:46:02.655Z,100253.25
2022-10-23T13:48:30.321Z,100255.84
2022-10-23T13:51:10.453Z,100256.44
2022-10-23T13:53:37.930Z,100254.28
2022-10-23T13:56:06.403Z,100256.53
2022-10-23T13:58:34.051Z,100245.34
2022-10-23T14:01:02.286Z,100253.94
2022-10-23T14:03:30.137Z,100251.22
2022-10-23T14:05:58.065Z,100247.06
2022-10-23T14:08:26.770Z,100250.28
2022-10-23T14:10:54.523Z,100250.56
2022-10-23T14:13:21.922Z,100241.03
2022-10-23T14:15:53.880Z,100247.50
2022-10-23T14:18:21.837Z,100238.13
2022-10-23T14:20:49.545Z,100239.16
2022-10-23T14:23:16.987Z,100239.91
2022-10-23T14:25:46.342Z,100235.97
2022-10-23T14:28:13.980Z,100244.16
2022-10-23T14:30:42.305Z,100246.09
2022-10-23T14:33:09.802Z,100238.53
2022-10-23T14:35:39.640Z,100246.09
2022-10-23T14:38:07.138Z,100225.03
2022-10-23T14:40:38.007Z,100218.50
2022-10-23T14:43:06.923Z,100221.00
2022-10-23T14:45:34.871Z,100221.75
2022-10-23T14:48:02.408Z,100220.31
2022-10-23T14:50:34.818Z,100215.44
2022-10-23T14:53:02.461Z,100207.41
2022-10-23T14:55:30.860Z,100212.84
2022-10-23T14:57:58.247Z,100205.97
2022-10-23T15:00:27.895Z,100209.00
2022-10-23T15:02:55.317Z,100211.88
2022-10-23T15:05:23.234Z,100211.19
2022-10-23T15:07:50.655Z,100208.66
2022-10-23T15:10:18.698Z,100200.50
2022-10-23T15:12:46.420Z,100207.50
2022-10-23T15:15:14.341Z,100199.56
2022-10-23T15:17:43.109Z,100207.28
2022-10-23T15:20:13.605Z,100199.56
2022-10-23T15:22:41.382Z,100205.84
2022-10-23T15:25:17.971Z,100202.97
2022-10-23T15:27:45.706Z,100197.13
2022-10-23T15:30:14.107Z,100199.56
2022-10-23T15:32:42.914Z,100201.69
2022-10-23T15:35:10.639Z,100198.56
2022-10-23T15:37:37.981Z,100205.16
2022-10-23T15:40:06.464Z,100207.03
2022-10-23T15:42:33.858Z,100198.56
2022-10-23T15:45:01.562Z,100205.97
2022-10-23T15:47:29.358Z,100208.25
2022-10-23T15:49:58.683Z,100205.97
2022-10-23T15:52:26.164Z,100212.72
2022-10-23T15:54:54.077Z,100214.59
2022-10-23T15:57:21.384Z,100206.06
2022-10-23T15:59:49.374Z,100202.31
2022-10-23T16:02:16.903Z,100214.84
2022-10-23T16:04:44.772Z,100216.03
2022-10-23T16:07:13.598Z,100209.59
2022-10-23T16:09:41.484Z,100205.63
2022-10-23T16:12:09.422Z,100218.94
2022-10-23T16:14:38.768Z,100222.97
2022-10-23T16:17:06.360Z,100220.28
2022-10-23T16:19:34.731Z,100222.72
2022-10-23T16:22:02.464Z,100223.91
2022-10-23T16:24:32.158Z,100228.91
2022-10-23T16:26:59.594Z,100224.06
2022-10-23T16:29:28.015Z,100219.63
2022-10-23T16:31:57.136Z,100217.63
2022-10-23T16:34:24.822Z,100206.81
2022-10-23T16:36:52.293Z,100204.75
2022-10-23T16:39:20.961Z,100201.41
2022-10-23T16:41:49.726Z,100192.22
2022-10-23T16:44:17.939Z,100209.63
2022-10-23T16:46:45.368Z,100210.50
2022-10-23T16:49:13.350Z,100207.53
2022-10-23T16:51:40.738Z,100202.03
2022-10-23T16:54:09.466Z,100201.16
2022-10-23T16:56:36.875Z,100193.31
2022-10-23T16:59:05.987Z,100189.22
2022-10-23T17:01:33.721Z,100185.31
2022-10-23T17:04:07.025Z,100192.19
2022-10-23T17:06:34.710Z,100184.06
2022-10-23T17:09:04.408Z,100173.84
2022-10-23T17:11:33.816Z,100167.81
2022-10-23T17:14:03.097Z,100182.22
2022-10-23T17:16:34.041Z,100181.66
2022-10-23T17:19:02.532Z,100186.91
2022-10-23T17:21:33.335Z,100186.16
2022-10-23T17:26:31.018Z,100196.00
2022-10-23T17:28:59.949Z,100196.44
2022-10-23T17:31:29.749Z,100198.56
2022-10-23T17:34:02.090Z,100204.66
2022-10-23T17:36:31.733Z,100203.69
2022-10-23T17:38:59.832Z,100188.50
2022-10-23T17:41:27.704Z,100179.53
2022-10-23T17:43:56.709Z,100176.44
2022-10-23T17:46:24.940Z,100159.66
2022-10-23T17:48:53.025Z,100163.69
2022-10-23T17:51:23.627Z,100159.63
2022-10-23T17:53:52.927Z,100156.69
2022-10-23T17:56:22.118Z,100149.28
2022-10-23T17:58:50.715Z,100145.91
2022-10-23T18:01:20.641Z,100139.56
2022-10-23T18:03:48.559Z,100143.09
2022-10-23T18:06:18.453Z,100155.53
2022-10-23T18:08:48.206Z,100144.25
2022-10-23T18:11:16.480Z,100143.03
2022-10-23T18:13:45.030Z,100139.00
2022-10-23T18:16:13.069Z,100137.84
2022-10-23T18:18:42.415Z,100149.66
2022-10-23T18:21:10.555Z,100146.63
2022-10-23T18:23:38.239Z,100143.59
2022-10-23T18:26:13.321Z,100136.00
2022-10-23T18:28:41.039Z,100134.84
2022-10-23T18:31:08.791Z,100141.22
2022-10-23T18:33:36.495Z,100132.19
2022-10-23T18:36:12.007Z,100135.44
2022-10-23T18:38:39.785Z,100126.03
2022-10-23T18:41:09.059Z,100123.84
2022-10-23T18:43:43.704Z,100123.78
2022-10-23T18:46:11.788Z,100112.91
2022-10-23T18:48:39.985Z,100114.63
2022-10-23T18:51:15.679Z,100117.97
2022-10-23T18:53:44.483Z,100113.03
2022-10-23T18:56:13.718Z,100106.63
2022-10-23T18:58:42.097Z,100105.97
2022-10-23T19:01:09.775Z,100104.94
2022-10-23T19:03:37.741Z,100098.84
2022-10-23T19:06:06.341Z,100102.88
2022-10-23T19:08:36.160Z,100095.28
2022-10-23T19:11:04.240Z,100095.44
2022-10-23T19:13:36.502Z,100093.63
2022-10-23T19:16:08.773Z,100090.97
2022-10-23T19:18:40.620Z,100093.09
2022-10-23T19:21:08.154Z,100096.19
2022-10-23T19:23:37.559Z,100094.00
2022-10-23T19:26:05.934Z,100085.91
2022-10-23T19:28:37.682Z,100093.16
2022-10-23T19:31:06.664Z,100082.72
2022-10-23T19:33:36.596Z,100082.19
2022-10-23T19:36:05.413Z,100071.72
2022-10-23T19:38:33.663Z,100077.78
2022-10-23T19:41:01.246Z,100063.66
2022-10-23T19:43:28.890Z,100054.13
2022-10-23T19:46:01.048Z,100063.66
2022-10-23T19:48:28.827Z,100078.50
2022-10-23T19:50:56.217Z,100068.09
2022-10-23T19:53:24.115Z,100069.25
2022-10-23T19:55:51.691Z,100069.13
2022-10-23T19:58:19.510Z,100069.16
2022-10-23T20:00:47.998Z,100062.78
2022-10-23T20:03:17.596Z,100055.53
2022-10-23T20:05:45.175Z,100046.91
2022-10-23T20:08:13.040Z,100042.34
2022-10-23T20:10:41.406Z,100043.19
2022-10-23T20:13:19.340Z,100047.34
2022-10-23T20:15:47.628Z,100036.94
2022-10-23T20:18:16.821Z,100036.25
2022-10-23T20:20:44.333Z,100036.75
2022-10-23T20:23:12.105Z,100031.94
2022-10-23T20:25:39.615Z,100017.81
2022-10-23T20:28:10.202Z,100018.84
2022-10-23T20:30:41.286Z,100015.97
2022-10-23T20:33:09.174Z,100010.47
2022-10-23T20:35:42.167Z,100016.28
2022-10-23T20:38:10.225Z,100016.88
2022-10-23T20:40:37.679Z,100020.91
2022-10-23T20:43:05.421Z,100024.69
2022-10-23T20:45:32.813Z,100025.41
2022-10-23T20:48:01.074Z,100026.81
2022-10-23T20:50:28.373Z,100027.66
2022-10-23T20:52:57.685Z,100026.59
2022-10-23T20:55:25.371Z,100033.94
2022-10-23T20:57:53.532Z,100021.03
2022-10-23T21:00:21.117Z,100020.22
2022-10-23T21:02:51.338Z,100014.59
2022-10-23T21:05:19.860Z,100015.63
2022-10-23T21:07:48.931Z,100023.16
2022-10-23T21:10:17.730Z,100027.72
2022-10-23T21:12:45.590Z,100024.38
2022-10-23T21:15:13.168Z,100018.97
2022-10-23T21:17:40.862Z,100019.84
2022-10-23T21:20:09.273Z,100009.03
2022-10-23T21:22:36.896Z,99996.38
2022-10-23T21:25:04.773Z,99987.00
2022-10-23T21:27:33.736Z,99984.22
2022-10-23T21:30:01.097Z,99979.28
2022-10-23T21:32:28.715Z,99983.47
2022-10-23T21:34:56.321Z,99993.03
2022-10-23T21:37:24.026Z,99980.16
2022-10-23T21:39:51.371Z,99969.41
2022-10-23T21:42:19.281Z,99964.03
2022-10-23T21:44:48.077Z,99967.69
2022-10-23T21:47:16.730Z,99962.91
2022-10-23T21:49:44.236Z,99955.69
2022-10-23T21:52:13.981Z,99948.00
2022-10-23T21:54:43.932Z,99955.63
2022-10-23T21:57:13.195Z,99954.09
2022-10-23T21:59:40.606Z,99942.25
2022-10-23T22:02:10.036Z,99944.13
2022-10-23T22:04:39.432Z,99940.38
2022-10-23T22:07:07.866Z,99944.75
2022-10-23T22:09:35.267Z,99934.22
2022-10-23T22:12:03.043Z,99931.66
2022-10-23T22:14:30.867Z,99934.16
2022-10-23T22:16:58.658Z,99939.63
2022-10-23T22:19:27.605Z,99929.22
2022-10-23T22:21:55.467Z,99917.94
2022-10-23T22:24:23.304Z,99921.25
2022-10-23T22:26:53.587Z,99914.72
2022-10-23T22:29:22.548Z,99911.19
2022-10-23T22:31:50.336Z,99899.97
2022-10-23T22:34:34.822Z,99902.63
2022-10-23T22:37:12.359Z,99904.00
2022-10-23T22:39:40.151Z,99908.38
2022-10-23T22:42:08.007Z,99917.03
2022-10-23T22:44:35.469Z,99921.56
2022-10-23T22:47:03.359Z,99929.97
2022-10-23T22:49:30.645Z,99927.19
2022-10-23T22:51:58.478Z,99935.56
2022-10-23T22:54:27.399Z,99931.34
2022-10-23T22:56:55.230Z,99927.13
2022-10-23T22:59:22.497Z,99920.00
2022-10-23T23:01:50.612Z,99929.09
2022-10-23T23:04:37.761Z,99930.63
2022-10-23T23:07:06.418Z,99927.97
2022-10-23T23:09:37.659Z,99938.31
2022-10-23T23:12:05.618Z,99935.25
2022-10-23T23:14:32.936Z,99942.13
2022-10-23T23:17:00.764Z,99930.47
2022-10-23T23:19:28.109Z,99941.03
2022-10-23T23:21:56.938Z,99945.22
2022-10-23T23:24:24.369Z,99936.31
2022-10-23T23:26:53.480Z,99930.69
2022-10-23T23:29:20.811Z,99932.34
2022-10-23T23:31:48.331Z,99923.63
2022-10-23T23:34:15.648Z,99923.41
2022-10-23T23:36:43.484Z,99930.28
2022-10-23T23:39:10.960Z,99945.09
2022-10-23T23:41:39.213Z,99946.84
2022-10-23T23:44:07.799Z,99952.34
2022-10-23T23:46:35.449Z,99949.13
2022-10-23T23:49:02.781Z,99953.38
2022-10-23T23:51:30.651Z,99960.53
2022-10-23T23:53:57.928Z,99959.88
2022-10-23T23:56:25.539Z,99966.34
2022-10-23T23:58:52.791Z,99986.53
